Time;durP1;ratioP1;P1;durP2;ratioP2;P2;SDS_P1;SDS_P2;PMS_P1;PMS_P2;Temp;Humidity;BMP_temperature;BMP_pressure;BME280_temperature;BME280_humidity;BME280_pressure;Samples;Min_cycle;Max_cycle;Signal;HPM_P1;HPM_P2
2023/01/19 00:01:30;;;;;;;23.25;11.70;;;-2.00;70.20;;;;;;5041539;28;20254;-68
2023/01/19 00:03:57;;;;;;;22.08;12.60;;;-2.00;70.10;;;;;;5046792;28;20242;-67
2023/01/19 00:06:26;;;;;;;29.35;16.20;;;-2.10;70.10;;;;;;5046740;28;20934;-68
2023/01/19 00:08:54;;;;;;;30.17;13.18;;;-2.10;70.10;;;;;;5040232;28;20783;-67
2023/01/19 00:11:22;;;;;;;19.45;10.85;;;-2.10;70.30;;;;;;5045181;28;20208;-67
2023/01/19 00:13:52;;;;;;;24.10;14.00;;;-2.10;70.20;;;;;;5046455;28;20228;-68
2023/01/19 00:16:22;;;;;;;30.67;15.50;;;-2.00;70.60;;;;;;5051178;28;20204;-69
2023/01/19 00:18:51;;;;;;;140.73;40.08;;;-1.90;70.80;;;;;;5050269;28;20224;-69
2023/01/19 00:21:20;;;;;;;57.38;21.67;;;-1.90;70.70;;;;;;5055113;28;20197;-69
2023/01/19 00:23:49;;;;;;;30.90;15.38;;;-1.80;70.70;;;;;;5051101;28;20217;-69
2023/01/19 00:26:20;;;;;;;29.40;14.45;;;-1.70;70.90;;;;;;5039595;28;20206;-69
2023/01/19 00:28:49;;;;;;;41.80;17.55;;;-1.60;70.80;;;;;;5046885;28;20224;-68
2023/01/19 00:31:20;;;;;;;34.78;18.27;;;-1.50;70.80;;;;;;5048869;28;20658;-69
2023/01/19 00:33:50;;;;;;;28.80;15.68;;;-1.50;70.70;;;;;;5053603;28;20203;-69
2023/01/19 00:36:19;;;;;;;33.25;17.42;;;-1.50;70.80;;;;;;5053345;28;20196;-69
2023/01/19 00:38:46;;;;;;;32.78;17.15;;;-1.40;71.00;;;;;;5045754;28;20235;-68
2023/01/19 00:41:14;;;;;;;37.40;20.05;;;-1.30;71.10;;;;;;5046764;28;20204;-69
2023/01/19 00:43:41;;;;;;;43.58;22.05;;;-1.20;71.00;;;;;;5046982;28;20217;-69
2023/01/19 00:46:10;;;;;;;41.58;20.15;;;-1.10;70.80;;;;;;5045128;28;20262;-69
2023/01/19 00:48:39;;;;;;;41.45;21.05;;;-1.20;70.70;;;;;;5053804;28;20753;-69
2023/01/19 00:51:07;;;;;;;42.20;17.58;;;-1.10;70.90;;;;;;5051994;28;20794;-69
2023/01/19 00:53:35;;;;;;;32.03;16.63;;;-1.10;70.80;;;;;;5044926;28;21179;-69
2023/01/19 00:56:03;;;;;;;36.22;16.90;;;-1.10;70.80;;;;;;5047017;28;20204;-69
2023/01/19 00:58:31;;;;;;;31.23;14.57;;;-1.10;70.90;;;;;;5049365;28;20228;-69
2023/01/19 01:01:02;;;;;;;28.40;15.15;;;-1.00;71.10;;;;;;5047566;28;20212;-68
2023/01/19 01:03:30;;;;;;;21.80;14.07;;;-0.90;71.10;;;;;;5045979;28;20224;-69
2023/01/19 01:06:00;;;;;;;65.72;25.27;;;-0.90;71.10;;;;;;5043766;28;20281;-68
2023/01/19 01:08:27;;;;;;;95.82;34.10;;;-0.90;70.80;;;;;;5045525;28;20212;-68
2023/01/19 01:10:56;;;;;;;42.50;17.73;;;-0.90;70.70;;;;;;5041644;28;20798;-67
2023/01/19 01:13:23;;;;;;;28.38;14.57;;;-0.90;70.70;;;;;;5049167;28;20255;-69
2023/01/19 01:15:56;;;;;;;19.55;12.27;;;-0.90;70.70;;;;;;5049162;28;20210;-69
2023/01/19 01:18:24;;;;;;;37.90;16.95;;;-1.00;70.60;;;;;;5047619;28;20305;-69
2023/01/19 01:20:52;;;;;;;30.40;15.93;;;-1.00;70.70;;;;;;5048002;28;20206;-68
2023/01/19 01:23:24;;;;;;;28.05;15.05;;;-1.00;70.80;;;;;;5047592;28;20200;-68
2023/01/19 01:25:52;;;;;;;32.90;18.13;;;-1.00;70.80;;;;;;5045720;28;20203;-68
2023/01/19 01:28:20;;;;;;;80.03;29.77;;;-1.00;70.90;;;;;;5043961;28;20278;-69
2023/01/19 01:30:52;;;;;;;46.42;20.50;;;-1.00;70.80;;;;;;5048512;28;21017;-68
2023/01/19 01:33:20;;;;;;;36.03;15.57;;;-1.00;70.90;;;;;;5044079;28;20628;-69
2023/01/19 01:36:08;;;;;;;23.00;13.10;;;-1.00;70.90;;;;;;5048292;28;20649;-68
2023/01/19 01:38:38;;;;;;;26.10;14.95;;;-1.00;70.80;;;;;;5046643;28;20220;-68
2023/01/19 01:41:06;;;;;;;22.92;13.00;;;-1.00;71.10;;;;;;5047906;28;20254;-70
2023/01/19 01:43:45;;;;;;;35.03;15.48;;;-0.90;71.20;;;;;;5050403;28;20270;-67
2023/01/19 01:46:15;;;;;;;32.55;16.55;;;-0.80;71.30;;;;;;5046567;28;20231;-68
2023/01/19 01:48:50;;;;;;;25.35;13.57;;;-0.80;71.20;;;;;;5047450;28;20256;-69
2023/01/19 01:51:24;;;;;;;24.60;14.88;;;-0.70;71.20;;;;;;5043188;28;20208;-68
2023/01/19 01:54:06;;;;;;;26.60;11.27;;;-0.70;71.20;;;;;;5043432;28;20236;-69
2023/01/19 01:56:37;;;;;;;24.05;13.30;;;-0.70;71.10;;;;;;5042768;28;20200;-69
2023/01/19 01:59:08;;;;;;;27.77;12.85;;;-0.70;71.00;;;;;;5046189;28;20227;-69
2023/01/19 02:04:23;;;;;;;31.35;15.43;;;-0.70;70.80;;;;;;5046469;28;20252;-69
2023/01/19 02:15:17;;;;;;;104.15;31.17;;;-0.90;70.60;;;;;;5048023;28;20222;-69
2023/01/19 02:17:46;;;;;;;53.97;24.90;;;-0.90;70.60;;;;;;5049213;28;20609;-68
2023/01/19 02:20:14;;;;;;;46.35;23.13;;;-1.00;70.50;;;;;;5046149;28;20192;-68
2023/01/19 02:22:47;;;;;;;38.83;19.42;;;-1.00;70.80;;;;;;5040881;28;20258;-68
2023/01/19 02:25:18;;;;;;;41.47;17.30;;;-1.00;71.00;;;;;;5046997;28;20201;-69
2023/01/19 02:27:48;;;;;;;38.03;15.85;;;-1.00;70.90;;;;;;5046115;28;20205;-69
2023/01/19 02:30:17;;;;;;;22.45;12.55;;;-1.00;70.70;;;;;;5045432;28;20677;-68
2023/01/19 02:32:45;;;;;;;40.97;15.77;;;-1.00;70.70;;;;;;5043103;28;20209;-69
2023/01/19 02:35:13;;;;;;;27.15;12.70;;;-1.10;70.70;;;;;;5046258;28;20228;-68
2023/01/19 02:37:43;;;;;;;22.25;12.38;;;-1.10;70.80;;;;;;5045077;28;20204;-69
2023/01/19 02:40:14;;;;;;;27.38;13.77;;;-1.10;70.90;;;;;;5047323;28;20192;-68
2023/01/19 02:42:48;;;;;;;30.52;15.43;;;-1.10;71.00;;;;;;5050494;28;20741;-68
2023/01/19 02:45:21;;;;;;;41.08;17.17;;;-1.10;70.80;;;;;;5039408;28;20212;-68
2023/01/19 02:47:51;;;;;;;37.65;16.38;;;-1.10;70.80;;;;;;5044176;28;20805;-68
2023/01/19 02:50:42;;;;;;;26.73;14.50;;;-1.20;70.50;;;;;;5044074;28;20220;-68
2023/01/19 02:53:36;;;;;;;27.67;12.88;;;-1.30;70.50;;;;;;5037994;28;20793;-68
2023/01/19 02:56:19;;;;;;;29.45;15.13;;;-1.40;70.60;;;;;;5039912;28;20204;-68
2023/01/19 02:58:55;;;;;;;32.83;18.63;;;-1.50;70.60;;;;;;5047535;28;20223;-68
2023/01/19 03:01:31;;;;;;;23.00;13.38;;;-1.50;70.70;;;;;;5043492;28;20204;-68
2023/01/19 03:04:07;;;;;;;23.08;12.98;;;-1.50;70.90;;;;;;5044386;28;20941;-68
2023/01/19 03:06:44;;;;;;;18.83;11.55;;;-1.40;71.30;;;;;;5041736;28;20686;-67
2023/01/19 03:09:22;;;;;;;26.50;12.45;;;-1.30;71.50;;;;;;5050697;28;20228;-67
2023/01/19 03:11:56;;;;;;;19.52;12.18;;;-1.20;71.60;;;;;;5041539;28;20641;-67
2023/01/19 03:14:28;;;;;;;20.98;11.80;;;-1.10;71.60;;;;;;5043177;28;20200;-68
2023/01/19 03:16:59;;;;;;;30.17;12.27;;;-1.00;71.60;;;;;;5041584;28;20242;-68
2023/01/19 03:19:32;;;;;;;21.27;12.25;;;-0.90;71.70;;;;;;5047349;28;20216;-68
2023/01/19 03:22:05;;;;;;;22.35;13.13;;;-0.90;71.80;;;;;;5045412;28;20254;-68
2023/01/19 03:24:37;;;;;;;21.95;13.43;;;-0.80;71.90;;;;;;5045950;28;20204;-68
2023/01/19 03:27:10;;;;;;;30.58;15.30;;;-0.70;72.00;;;;;;5048351;28;20201;-68
2023/01/19 03:29:43;;;;;;;19.35;12.38;;;-0.70;71.90;;;;;;5044637;28;20255;-68
2023/01/19 03:32:16;;;;;;;23.88;13.75;;;-0.70;71.70;;;;;;5041437;28;20201;-68
2023/01/19 03:34:47;;;;;;;23.65;13.25;;;-0.70;72.00;;;;;;5041258;28;20902;-68
2023/01/19 03:37:16;;;;;;;26.38;14.70;;;-0.60;72.20;;;;;;5037912;28;20383;-68
2023/01/19 03:39:44;;;;;;;26.65;14.60;;;-0.50;72.30;;;;;;5043343;28;20279;-68
2023/01/19 03:42:15;;;;;;;23.95;13.77;;;-0.40;72.50;;;;;;5050063;28;20204;-68
2023/01/19 03:44:49;;;;;;;27.95;14.35;;;-0.30;72.30;;;;;;5051992;28;20188;-68
2023/01/19 03:47:19;;;;;;;22.65;14.35;;;-0.30;72.50;;;;;;5054486;28;20202;-66
2023/01/19 03:49:49;;;;;;;23.80;12.77;;;-0.20;72.40;;;;;;5054115;28;20231;-68
2023/01/19 03:52:17;;;;;;;26.05;13.98;;;-0.20;72.40;;;;;;5050088;28;20200;-69
2023/01/19 03:54:44;;;;;;;35.00;15.27;;;-0.10;72.50;;;;;;5055100;28;20282;-68
2023/01/19 03:57:12;;;;;;;26.67;14.57;;;-0.10;72.40;;;;;;5052674;28;20200;-68
2023/01/19 03:59:40;;;;;;;19.33;12.60;;;-0.10;72.40;;;;;;5048166;28;20293;-67
2023/01/19 04:02:10;;;;;;;32.88;13.35;;;0.00;72.50;;;;;;5048032;28;20206;-67
2023/01/19 04:04:38;;;;;;;24.17;13.18;;;0.00;72.60;;;;;;5052338;28;20242;-67
2023/01/19 04:07:09;;;;;;;33.63;16.98;;;0.00;72.60;;;;;;5047737;28;20225;-67
2023/01/19 04:09:37;;;;;;;59.40;25.17;;;0.00;72.40;;;;;;5049971;28;20231;-67
2023/01/19 04:12:05;;;;;;;48.05;21.30;;;0.00;72.40;;;;;;5053575;28;20654;-67
2023/01/19 04:14:33;;;;;;;37.45;17.00;;;0.00;72.60;;;;;;5049792;28;20293;-68
2023/01/19 04:17:01;;;;;;;34.15;18.70;;;0.00;72.60;;;;;;5047272;28;20900;-67
2023/01/19 04:19:30;;;;;;;24.02;13.40;;;0.00;72.70;;;;;;5045266;28;20274;-67
2023/01/19 04:21:58;;;;;;;21.35;13.85;;;0.00;72.80;;;;;;5042486;28;20209;-68
2023/01/19 04:24:26;;;;;;;23.83;13.32;;;0.00;72.80;;;;;;5052800;28;20962;-67
2023/01/19 04:26:54;;;;;;;22.80;13.85;;;0.10;72.90;;;;;;5050523;28;20732;-67
2023/01/19 04:29:23;;;;;;;29.23;16.02;;;0.10;72.90;;;;;;5050336;28;20232;-67
2023/01/19 04:31:51;;;;;;;28.95;15.32;;;0.10;73.00;;;;;;5047027;28;20236;-69
2023/01/19 04:34:19;;;;;;;30.85;14.93;;;0.10;73.10;;;;;;5043408;28;20885;-69
2023/01/19 04:36:49;;;;;;;26.27;14.65;;;0.20;73.20;;;;;;5048585;28;20261;-67
2023/01/19 04:39:17;;;;;;;32.70;15.30;;;0.20;73.20;;;;;;5043056;28;20880;-68
2023/01/19 04:41:45;;;;;;;28.40;14.73;;;0.20;73.10;;;;;;5042149;28;20196;-69
2023/01/19 04:44:13;;;;;;;33.60;15.55;;;0.30;73.30;;;;;;5051991;28;20605;-66
2023/01/19 04:46:41;;;;;;;35.85;17.52;;;0.30;73.40;;;;;;5049322;28;20240;-67
2023/01/19 04:49:09;;;;;;;29.98;17.05;;;0.40;73.40;;;;;;5050730;28;20886;-66
2023/01/19 04:51:37;;;;;;;46.72;22.40;;;0.40;73.30;;;;;;5049486;28;20576;-67
2023/01/19 04:54:07;;;;;;;29.85;16.52;;;0.40;73.30;;;;;;5049974;28;20966;-68
2023/01/19 04:56:36;;;;;;;33.95;18.23;;;0.40;73.40;;;;;;5048655;28;20200;-66
2023/01/19 04:59:04;;;;;;;33.38;18.50;;;0.40;73.40;;;;;;5049260;28;20251;-68
2023/01/19 05:01:32;;;;;;;30.30;15.25;;;0.40;73.50;;;;;;5047036;28;20238;-69
2023/01/19 05:04:02;;;;;;;37.33;16.10;;;0.40;73.50;;;;;;5045085;28;20732;-68
2023/01/19 05:06:30;;;;;;;30.38;17.67;;;0.50;73.70;;;;;;5046748;28;20233;-67
2023/01/19 05:08:58;;;;;;;34.42;18.55;;;0.50;73.60;;;;;;5049131;28;20227;-68
2023/01/19 05:11:27;;;;;;;34.90;17.48;;;0.40;73.40;;;;;;5049563;28;20243;-67
2023/01/19 05:13:55;;;;;;;28.95;16.85;;;0.40;73.60;;;;;;5046628;28;20230;-68
2023/01/19 05:16:23;;;;;;;24.23;15.70;;;0.40;73.80;;;;;;5054238;28;20241;-67
2023/01/19 05:18:51;;;;;;;27.73;15.95;;;0.50;73.80;;;;;;5049426;28;20236;-67
2023/01/19 05:21:19;;;;;;;25.85;15.18;;;0.50;73.90;;;;;;5049549;28;20204;-67
2023/01/19 05:23:47;;;;;;;28.55;15.10;;;0.50;74.00;;;;;;5051875;28;20200;-67
2023/01/19 05:26:15;;;;;;;27.20;16.08;;;0.60;74.10;;;;;;5046950;28;20624;-67
2023/01/19 05:28:44;;;;;;;26.65;15.65;;;0.60;74.10;;;;;;5053229;28;20227;-67
2023/01/19 05:31:12;;;;;;;25.92;15.23;;;0.60;74.30;;;;;;5050833;28;20895;-68
2023/01/19 05:33:41;;;;;;;27.75;15.35;;;0.70;74.20;;;;;;5046724;28;20683;-68
2023/01/19 05:36:09;;;;;;;26.17;15.00;;;0.80;74.30;;;;;;5049647;28;20207;-69
2023/01/19 05:38:37;;;;;;;33.92;14.38;;;0.80;74.40;;;;;;5056403;28;20223;-68
2023/01/19 05:41:05;;;;;;;24.80;14.32;;;0.90;74.30;;;;;;5054294;28;20250;-68
2023/01/19 05:43:33;;;;;;;26.90;14.15;;;0.90;74.40;;;;;;5060457;28;20667;-68
2023/01/19 05:46:03;;;;;;;25.10;15.00;;;1.00;74.30;;;;;;5047886;28;20281;-67
2023/01/19 05:48:31;;;;;;;26.83;15.38;;;1.00;74.40;;;;;;5052966;28;20282;-66
2023/01/19 05:51:00;;;;;;;23.70;14.15;;;1.00;74.30;;;;;;5050326;28;20953;-67
2023/01/19 05:53:28;;;;;;;27.42;14.82;;;1.00;74.30;;;;;;5066907;28;20700;-69
2023/01/19 05:56:00;;;;;;;26.73;15.30;;;1.00;74.20;;;;;;5049546;28;20266;-69
2023/01/19 05:58:28;;;;;;;27.10;14.95;;;1.00;74.20;;;;;;5048994;28;20248;-69
2023/01/19 06:00:56;;;;;;;25.70;15.40;;;0.90;74.30;;;;;;5047055;28;20216;-69
2023/01/19 06:03:26;;;;;;;31.65;16.98;;;0.90;74.30;;;;;;5045740;28;20201;-69
2023/01/19 06:05:56;;;;;;;28.13;16.33;;;0.90;74.30;;;;;;5043876;28;20284;-67
2023/01/19 06:08:24;;;;;;;26.67;15.85;;;0.90;74.30;;;;;;5044608;28;20896;-69
2023/01/19 06:10:52;;;;;;;27.05;14.52;;;0.90;74.40;;;;;;5050245;28;20274;-68
2023/01/19 06:13:20;;;;;;;23.30;13.82;;;0.90;74.40;;;;;;5056507;28;20829;-68
2023/01/19 06:15:48;;;;;;;22.88;13.57;;;0.90;74.50;;;;;;5054391;28;20208;-68
2023/01/19 06:18:16;;;;;;;18.58;12.07;;;0.90;74.50;;;;;;5049769;28;20232;-68
2023/01/19 06:20:46;;;;;;;20.27;12.45;;;0.90;74.50;;;;;;5052732;28;20212;-69
2023/01/19 06:23:13;;;;;;;19.33;11.55;;;1.00;74.60;;;;;;5051336;28;20212;-69
2023/01/19 06:25:41;;;;;;;22.33;13.43;;;1.00;74.70;;;;;;5048998;28;20229;-68
2023/01/19 06:28:09;;;;;;;22.00;13.27;;;1.00;74.70;;;;;;5045390;28;20219;-69
2023/01/19 06:30:39;;;;;;;18.33;11.52;;;1.00;74.80;;;;;;5047220;28;20889;-67
2023/01/19 06:33:07;;;;;;;20.90;11.60;;;1.00;74.90;;;;;;5045609;28;20201;-68
2023/01/19 06:35:35;;;;;;;28.55;12.10;;;1.10;74.90;;;;;;5048663;28;20737;-69
2023/01/19 06:38:04;;;;;;;20.85;12.63;;;1.10;74.90;;;;;;5042580;28;20270;-69
2023/01/19 06:40:32;;;;;;;18.40;11.65;;;1.10;74.90;;;;;;5046066;28;20223;-71
2023/01/19 06:43:00;;;;;;;17.33;10.68;;;1.10;74.80;;;;;;5044183;28;20282;-71
2023/01/19 06:45:29;;;;;;;20.33;11.20;;;1.10;74.90;;;;;;5048190;28;20262;-70
2023/01/19 06:47:57;;;;;;;21.88;12.13;;;1.10;74.90;;;;;;5042273;28;20300;-68
2023/01/19 06:50:25;;;;;;;20.52;12.57;;;1.10;74.90;;;;;;5039904;28;20586;-70
2023/01/19 06:52:53;;;;;;;21.95;12.88;;;1.20;74.90;;;;;;5042446;28;20681;-72
2023/01/19 06:55:22;;;;;;;24.38;12.27;;;1.20;75.00;;;;;;5044050;28;21005;-72
2023/01/19 06:57:57;;;;;;;20.75;12.40;;;1.20;75.00;;;;;;5039301;28;20288;-70
2023/01/19 07:00:25;;;;;;;21.63;13.50;;;1.20;75.10;;;;;;5047485;28;20203;-71
2023/01/19 07:02:53;;;;;;;20.42;11.52;;;1.20;75.10;;;;;;5049797;28;20235;-70
2023/01/19 07:05:21;;;;;;;22.70;12.35;;;1.30;75.20;;;;;;5048523;28;20257;-70
2023/01/19 07:07:53;;;;;;;21.02;12.15;;;1.30;75.10;;;;;;5045271;28;20282;-72
2023/01/19 07:10:24;;;;;;;19.90;12.85;;;1.30;75.10;;;;;;5040704;28;20201;-71
2023/01/19 07:12:52;;;;;;;22.02;12.48;;;1.30;75.10;;;;;;5041492;28;20208;-71
2023/01/19 07:15:20;;;;;;;47.00;26.40;;;1.30;75.10;;;;;;5043482;28;20197;-71
2023/01/19 07:17:48;;;;;;;26.35;15.23;;;1.30;75.00;;;;;;5041453;28;20208;-70
2023/01/19 07:20:18;;;;;;;32.67;19.23;;;1.30;75.00;;;;;;5047790;28;20212;-70
2023/01/19 07:22:46;;;;;;;26.25;15.57;;;1.20;75.00;;;;;;5043850;28;20266;-70
2023/01/19 07:25:14;;;;;;;26.42;16.95;;;1.20;75.10;;;;;;5041940;28;20863;-70
2023/01/19 07:27:43;;;;;;;24.80;15.15;;;1.20;75.00;;;;;;5038993;28;20221;-71
2023/01/19 07:30:14;;;;;;;22.20;15.18;;;1.20;74.90;;;;;;5042553;28;20208;-72
2023/01/19 07:32:42;;;;;;;31.35;18.20;;;1.10;74.90;;;;;;5037558;28;20222;-70
2023/01/19 07:35:10;;;;;;;77.30;45.28;;;1.10;74.90;;;;;;5040867;28;20717;-69
2023/01/19 07:37:38;;;;;;;56.38;35.72;;;1.10;74.80;;;;;;5045992;28;20258;-69
2023/01/19 07:40:07;;;;;;;65.90;38.67;;;1.00;74.90;;;;;;5044385;28;20254;-70
2023/01/19 07:42:35;;;;;;;59.05;33.30;;;1.00;75.00;;;;;;5044681;28;20204;-69
2023/01/19 07:45:05;;;;;;;32.05;18.60;;;1.00;75.00;;;;;;5043823;28;20199;-69
2023/01/19 07:47:33;;;;;;;26.10;16.20;;;1.00;75.10;;;;;;5045100;28;20217;-70
2023/01/19 07:50:02;;;;;;;21.92;13.73;;;1.00;75.20;;;;;;5042204;28;20290;-71
2023/01/19 07:52:30;;;;;;;25.23;14.85;;;1.10;75.40;;;;;;5041364;28;20672;-71
2023/01/19 07:54:58;;;;;;;22.35;13.38;;;1.10;75.50;;;;;;5042126;28;20196;-71
2023/01/19 07:57:26;;;;;;;20.38;13.85;;;1.20;75.50;;;;;;5046399;28;20220;-70
2023/01/19 07:59:54;;;;;;;21.58;13.50;;;1.20;75.50;;;;;;5051567;28;20241;-71
2023/01/19 08:02:24;;;;;;;21.80;12.75;;;1.30;75.60;;;;;;5042756;28;20619;-71
2023/01/19 08:04:52;;;;;;;24.15;13.95;;;1.30;75.60;;;;;;5047721;28;20207;-69
2023/01/19 08:07:20;;;;;;;22.33;13.30;;;1.40;75.50;;;;;;5048153;28;20215;-70
2023/01/19 08:09:48;;;;;;;20.80;13.05;;;1.40;75.60;;;;;;5044895;28;20924;-69
2023/01/19 08:12:17;;;;;;;21.83;13.90;;;1.40;75.60;;;;;;5044020;28;20835;-69
2023/01/19 08:14:45;;;;;;;19.52;12.38;;;1.50;75.60;;;;;;5046387;28;20419;-68
2023/01/19 08:17:13;;;;;;;22.38;12.85;;;1.50;75.60;;;;;;5045324;28;20219;-70
2023/01/19 08:19:43;;;;;;;19.80;12.52;;;1.50;75.70;;;;;;5045465;28;20273;-70
2023/01/19 08:22:11;;;;;;;20.55;13.20;;;1.50;75.80;;;;;;5046416;28;20224;-72
2023/01/19 08:24:39;;;;;;;21.48;12.75;;;1.60;75.80;;;;;;5047609;28;20220;-72
2023/01/19 08:27:08;;;;;;;22.23;13.55;;;1.60;75.80;;;;;;5042468;28;20256;-69
2023/01/19 08:29:36;;;;;;;22.35;13.57;;;1.60;75.80;;;;;;5047693;28;20267;-70
2023/01/19 08:32:05;;;;;;;23.40;13.50;;;1.70;75.80;;;;;;5046004;28;20253;-71
2023/01/19 08:34:33;;;;;;;20.83;12.68;;;1.70;75.80;;;;;;5048957;28;20211;-71
2023/01/19 08:37:03;;;;;;;20.98;13.50;;;1.70;75.80;;;;;;5046486;28;20207;-71
2023/01/19 08:39:30;;;;;;;22.77;13.65;;;1.70;75.70;;;;;;5049832;28;20227;-70
2023/01/19 08:41:59;;;;;;;24.30;13.80;;;1.80;75.70;;;;;;5051477;28;20250;-73
2023/01/19 08:44:27;;;;;;;23.17;12.50;;;1.80;75.70;;;;;;5049242;28;20196;-71
2023/01/19 08:46:55;;;;;;;22.30;13.40;;;1.80;75.80;;;;;;5047425;28;20625;-68
2023/01/19 08:49:23;;;;;;;20.25;12.77;;;1.80;75.80;;;;;;5048983;28;20250;-70
2023/01/19 08:51:51;;;;;;;20.65;12.45;;;1.90;75.90;;;;;;5052704;28;20254;-71
2023/01/19 08:54:21;;;;;;;20.40;12.90;;;1.90;75.90;;;;;;5057435;28;20212;-70
2023/01/19 08:56:49;;;;;;;21.55;12.63;;;1.90;75.90;;;;;;5044684;28;20228;-70
2023/01/19 08:59:17;;;;;;;20.77;13.02;;;1.90;76.00;;;;;;5045248;28;20224;-69
2023/01/19 09:01:45;;;;;;;18.80;11.05;;;2.00;76.10;;;;;;5039074;28;20220;-73
2023/01/19 09:04:14;;;;;;;19.02;12.20;;;2.00;76.10;;;;;;5046653;28;20200;-71
2023/01/19 09:06:41;;;;;;;25.42;12.52;;;2.10;76.20;;;;;;5045592;28;20258;-71
2023/01/19 09:09:09;;;;;;;20.13;11.85;;;2.10;76.30;;;;;;5048897;28;20228;-72
2023/01/19 09:11:39;;;;;;;17.88;12.25;;;2.10;76.30;;;;;;5047211;28;21067;-71
2023/01/19 09:14:07;;;;;;;22.55;12.13;;;2.20;76.30;;;;;;5045408;28;20697;-70
2023/01/19 09:16:35;;;;;;;22.40;13.23;;;2.20;76.30;;;;;;5044233;28;20200;-69
2023/01/19 09:19:03;;;;;;;21.83;12.13;;;2.30;76.30;;;;;;5032768;28;20224;-71
2023/01/19 09:21:31;;;;;;;21.40;12.40;;;2.30;76.40;;;;;;5037118;28;20588;-69
2023/01/19 09:23:59;;;;;;;23.10;12.75;;;2.30;76.50;;;;;;5032080;28;20785;-72
2023/01/19 09:26:27;;;;;;;22.08;12.40;;;2.40;76.50;;;;;;5045222;28;20212;-68
2023/01/19 09:28:58;;;;;;;19.83;12.40;;;2.40;76.50;;;;;;5046129;28;20243;-72
2023/01/19 09:31:26;;;;;;;17.80;11.85;;;2.40;76.40;;;;;;5037274;28;20200;-71
2023/01/19 09:33:54;;;;;;;18.20;11.52;;;2.50;76.50;;;;;;5045612;28;20209;-70
2023/01/19 09:36:22;;;;;;;17.73;11.10;;;2.40;76.50;;;;;;5045543;28;20223;-71
2023/01/19 09:38:50;;;;;;;15.88;10.27;;;2.50;76.60;;;;;;5049865;28;20235;-71
2023/01/19 09:41:21;;;;;;;16.15;10.50;;;2.50;76.50;;;;;;5042290;28;20211;-73
2023/01/19 09:43:54;;;;;;;15.85;9.82;;;2.50;76.60;;;;;;5043317;28;20279;-71
2023/01/19 09:46:31;;;;;;;17.30;9.80;;;2.50;76.70;;;;;;5046036;28;20205;-72
2023/01/19 09:49:03;;;;;;;14.52;9.00;;;2.50;76.70;;;;;;5045706;28;20224;-70
2023/01/19 09:51:35;;;;;;;13.57;8.30;;;2.60;76.70;;;;;;5040225;28;20279;-70
2023/01/19 09:54:11;;;;;;;17.15;8.45;;;2.60;76.70;;;;;;5041355;28;20200;-69
2023/01/19 09:56:40;;;;;;;17.13;8.35;;;2.60;76.70;;;;;;5036665;28;20846;-69
2023/01/19 09:59:21;;;;;;;15.00;9.38;;;2.60;76.70;;;;;;5044309;28;20219;-69
2023/01/19 10:02:14;;;;;;;14.15;8.50;;;2.60;76.80;;;;;;5040993;28;20246;-69
2023/01/19 10:04:44;;;;;;;11.23;7.63;;;2.70;76.70;;;;;;5045055;28;20686;-70
2023/01/19 10:07:20;;;;;;;24.88;9.30;;;2.70;76.70;;;;;;5041308;28;20205;-68
2023/01/19 10:10:09;;;;;;;15.02;9.52;;;2.70;76.80;;;;;;5045233;28;20213;-68
2023/01/19 10:12:44;;;;;;;13.32;8.57;;;2.70;76.90;;;;;;5045505;28;20209;-68
2023/01/19 10:15:20;;;;;;;13.05;7.53;;;2.80;77.00;;;;;;5047086;28;20204;-70
2023/01/19 10:17:59;;;;;;;16.75;8.10;;;2.80;77.00;;;;;;5047366;28;20794;-69
2023/01/19 10:20:32;;;;;;;14.38;8.95;;;2.80;77.00;;;;;;5047080;28;20196;-69
2023/01/19 10:23:01;;;;;;;14.65;9.05;;;2.90;77.00;;;;;;5050667;28;20243;-69
2023/01/19 10:25:30;;;;;;;14.88;8.63;;;2.90;77.00;;;;;;5046615;28;20200;-69
2023/01/19 10:28:04;;;;;;;13.05;9.10;;;2.90;76.90;;;;;;5044496;28;20201;-70
2023/01/19 10:30:33;;;;;;;16.35;9.70;;;2.90;76.90;;;;;;5040132;28;20225;-69
2023/01/19 10:33:02;;;;;;;19.05;10.68;;;2.90;76.90;;;;;;5053175;28;20204;-70
2023/01/19 10:35:31;;;;;;;21.60;11.15;;;2.90;76.90;;;;;;5053676;28;20196;-66
2023/01/19 10:38:02;;;;;;;20.85;11.73;;;2.90;76.80;;;;;;5045542;28;20276;-69
2023/01/19 10:40:34;;;;;;;20.27;10.75;;;2.80;76.80;;;;;;5045165;28;20560;-69
2023/01/19 10:43:41;;;;;;;17.38;11.90;;;2.80;76.90;;;;;;5037951;28;20208;-69
2023/01/19 10:46:20;;;;;;;18.35;11.15;;;2.80;77.00;;;;;;5037922;28;20204;-70
2023/01/19 10:48:52;;;;;;;21.55;11.93;;;2.80;77.00;;;;;;5046913;28;20229;-68
2023/01/19 10:51:20;;;;;;;19.27;12.18;;;2.80;77.20;;;;;;5040053;28;20281;-69
2023/01/19 10:53:58;;;;;;;18.98;11.70;;;2.90;77.10;;;;;;5040408;28;20219;-69
2023/01/19 10:56:30;;;;;;;19.73;12.45;;;2.90;77.00;;;;;;5044856;28;20223;-70
2023/01/19 10:59:00;;;;;;;20.05;12.07;;;2.90;77.00;;;;;;5039330;28;20648;-70
2023/01/19 11:01:29;;;;;;;19.90;11.13;;;2.90;77.00;;;;;;5039784;28;20201;-70
2023/01/19 11:04:04;;;;;;;19.45;12.32;;;2.80;77.20;;;;;;5037190;28;20721;-69
2023/01/19 11:06:34;;;;;;;22.10;13.35;;;2.80;77.20;;;;;;5043259;28;20253;-70
2023/01/19 11:09:16;;;;;;;19.30;11.38;;;2.90;77.10;;;;;;5053823;28;20217;-70
2023/01/19 11:11:47;;;;;;;20.63;12.90;;;2.90;77.10;;;;;;5040314;28;20198;-70
2023/01/19 11:14:20;;;;;;;22.13;13.68;;;2.90;77.20;;;;;;5040921;28;20216;-69
2023/01/19 11:16:51;;;;;;;24.80;14.82;;;2.80;77.30;;;;;;5046469;28;20204;-69
2023/01/19 11:19:27;;;;;;;18.65;12.73;;;2.90;77.20;;;;;;5042772;28;20224;-70
2023/01/19 11:22:10;;;;;;;24.80;13.57;;;2.90;77.30;;;;;;5039790;28;20269;-70
2023/01/19 11:24:39;;;;;;;21.67;13.98;;;2.90;77.30;;;;;;5037546;28;20200;-69
2023/01/19 11:27:07;;;;;;;25.65;14.07;;;2.90;77.30;;;;;;5047726;28;20204;-69
2023/01/19 11:29:37;;;;;;;24.00;14.57;;;2.90;77.30;;;;;;5045769;28;20310;-69
2023/01/19 11:32:22;;;;;;;21.20;13.30;;;2.90;77.40;;;;;;5047078;28;20204;-67
2023/01/19 11:34:52;;;;;;;22.30;13.98;;;3.00;77.40;;;;;;5042722;28;20207;-70
2023/01/19 11:37:29;;;;;;;20.45;13.00;;;3.00;77.40;;;;;;5045436;28;20192;-70
2023/01/19 11:39:59;;;;;;;22.10;14.35;;;3.00;77.50;;;;;;5043111;28;20232;-70
2023/01/19 11:42:30;;;;;;;22.77;13.65;;;3.00;77.50;;;;;;5041392;28;20265;-70
2023/01/19 11:45:04;;;;;;;22.52;13.10;;;3.10;77.40;;;;;;5039335;28;20207;-69
2023/01/19 11:47:39;;;;;;;21.55;14.25;;;3.10;77.40;;;;;;5049348;28;20684;-70
2023/01/19 11:50:19;;;;;;;20.58;13.57;;;3.10;77.50;;;;;;5074574;28;20216;-69
2023/01/19 11:52:52;;;;;;;22.23;14.27;;;3.10;77.50;;;;;;5044263;28;20208;-70
2023/01/19 11:55:25;;;;;;;22.80;13.15;;;3.10;77.50;;;;;;5046509;28;20226;-70
2023/01/19 11:57:54;;;;;;;27.65;13.25;;;3.10;77.40;;;;;;5039117;28;20201;-70
2023/01/19 12:00:28;;;;;;;22.10;12.85;;;3.10;77.50;;;;;;5043910;28;20277;-70
2023/01/19 12:03:02;;;;;;;22.42;13.25;;;3.10;77.50;;;;;;5033336;28;20219;-68
2023/01/19 12:05:35;;;;;;;23.52;13.73;;;3.20;77.60;;;;;;5055912;28;20333;-70
2023/01/19 12:08:09;;;;;;;21.70;13.40;;;3.20;77.50;;;;;;5051926;28;20203;-69
2023/01/19 12:10:42;;;;;;;21.05;14.40;;;3.20;77.50;;;;;;5046129;28;20957;-69
2023/01/19 12:13:20;;;;;;;20.70;12.70;;;3.20;77.50;;;;;;5049827;28;20207;-69
2023/01/19 12:15:53;;;;;;;21.80;13.63;;;3.30;77.60;;;;;;5053007;28;20215;-69
2023/01/19 12:18:24;;;;;;;21.58;13.30;;;3.30;77.50;;;;;;5051823;28;20228;-69
2023/01/19 12:20:55;;;;;;;21.30;13.73;;;3.30;77.50;;;;;;5047935;28;20913;-70
2023/01/19 12:23:33;;;;;;;21.45;12.88;;;3.30;77.60;;;;;;5047542;28;20192;-68
2023/01/19 12:26:21;;;;;;;18.38;12.00;;;3.30;77.50;;;;;;5045994;28;20208;-70
2023/01/19 12:28:52;;;;;;;20.45;12.02;;;3.30;77.50;;;;;;5062667;28;20273;-70
2023/01/19 12:31:22;;;;;;;19.60;12.32;;;3.30;77.60;;;;;;5045639;28;20212;-70
2023/01/19 12:33:50;;;;;;;21.13;12.75;;;3.30;77.50;;;;;;5043513;28;20203;-69
2023/01/19 12:36:39;;;;;;;16.48;11.55;;;3.30;77.50;;;;;;5050350;28;20947;-70
2023/01/19 12:39:20;;;;;;;21.42;13.38;;;3.30;77.60;;;;;;5043630;28;20685;-70
2023/01/19 12:41:49;;;;;;;21.50;11.98;;;3.30;77.50;;;;;;5045027;28;20263;-69
2023/01/19 12:44:29;;;;;;;20.67;12.35;;;3.30;77.50;;;;;;5042525;28;20205;-70
2023/01/19 12:47:02;;;;;;;15.23;11.13;;;3.30;77.50;;;;;;5048455;28;20204;-70
2023/01/19 12:49:35;;;;;;;22.85;13.07;;;3.30;77.60;;;;;;5049815;28;20280;-69
2023/01/19 12:52:21;;;;;;;19.08;11.52;;;3.30;77.60;;;;;;5047245;28;20246;-70
2023/01/19 12:54:55;;;;;;;18.75;11.38;;;3.30;77.60;;;;;;5036967;28;20266;-70
2023/01/19 12:57:28;;;;;;;17.42;11.45;;;3.30;77.70;;;;;;5040082;28;20782;-70
2023/01/19 12:59:57;;;;;;;19.95;12.68;;;3.40;77.70;;;;;;5046805;28;20220;-70
2023/01/19 13:02:42;;;;;;;19.10;12.15;;;3.40;77.80;;;;;;5045392;28;21016;-70
2023/01/19 13:05:19;;;;;;;20.23;12.30;;;3.40;77.80;;;;;;5042250;28;20228;-70